sensor_id;sensor_type;location;lat;lon;timestamp;temperature;humidity
29917;DHT22;16786;49.466;11.068;2022-08-20T00:01:46;18.00;99.90
29917;DHT22;16786;49.466;11.068;2022-08-20T00:04:16;18.00;99.90
29917;DHT22;16786;49.466;11.068;2022-08-20T00:06:45;18.00;99.90
29917;DHT22;16786;49.466;11.068;2022-08-20T00:09:19;17.90;99.90
29917;DHT22;16786;49.466;11.068;2022-08-20T00:11:47;17.90;99.90
29917;DHT22;16786;49.466;11.068;2022-08-20T00:14:16;17.90;99.90
29917;DHT22;16786;49.466;11.068;2022-08-20T00:16:44;17.90;99.90
29917;DHT22;16786;49.466;11.068;2022-08-20T00:19:12;17.90;99.90
29917;DHT22;16786;49.466;11.068;2022-08-20T00:21:39;17.80;99.90
29917;DHT22;16786;49.466;11.068;2022-08-20T00:24:08;17.80;99.90
29917;DHT22;16786;49.466;11.068;2022-08-20T00:26:35;17.80;99.90
29917;DHT22;16786;49.466;11.068;2022-08-20T00:29:18;17.80;99.90
29917;DHT22;16786;49.466;11.068;2022-08-20T00:31:46;17.80;99.90
29917;DHT22;16786;49.466;11.068;2022-08-20T00:34:15;17.80;99.90
29917;DHT22;16786;49.466;11.068;2022-08-20T00:36:42;17.80;99.90
29917;DHT22;16786;49.466;11.068;2022-08-20T00:39:10;17.80;99.90
29917;DHT22;16786;49.466;11.068;2022-08-20T00:41:37;17.80;99.90
29917;DHT22;16786;49.466;11.068;2022-08-20T00:44:13;17.80;99.90
29917;DHT22;16786;49.466;11.068;2022-08-20T00:46:45;17.80;99.90
29917;DHT22;16786;49.466;11.068;2022-08-20T00:49:15;17.80;99.90
29917;DHT22;16786;49.466;11.068;2022-08-20T00:51:47;17.80;99.90
29917;DHT22;16786;49.466;11.068;2022-08-20T00:54:22;17.80;99.90
29917;DHT22;16786;49.466;11.068;2022-08-20T00:57:06;17.80;99.90
29917;DHT22;16786;49.466;11.068;2022-08-20T00:59:36;17.80;99.90
29917;DHT22;16786;49.466;11.068;2022-08-20T01:02:11;17.80;99.90
29917;DHT22;16786;49.466;11.068;2022-08-20T01:04:39;17.80;99.90
29917;DHT22;16786;49.466;11.068;2022-08-20T01:07:11;17.80;99.90
29917;DHT22;16786;49.466;11.068;2022-08-20T01:09:40;17.80;99.90
29917;DHT22;16786;49.466;11.068;2022-08-20T01:12:27;17.80;99.90
29917;DHT22;16786;49.466;11.068;2022-08-20T01:14:58;17.80;99.90
29917;DHT22;16786;49.466;11.068;2022-08-20T01:17:28;17.80;99.90
29917;DHT22;16786;49.466;11.068;2022-08-20T01:20:06;17.80;99.90
29917;DHT22;16786;49.466;11.068;2022-08-20T01:25:51;17.80;99.90
29917;DHT22;16786;49.466;11.068;2022-08-20T01:31:18;17.80;99.90
29917;DHT22;16786;49.466;11.068;2022-08-20T01:33:47;17.80;99.90
29917;DHT22;16786;49.466;11.068;2022-08-20T01:36:16;17.70;99.90
29917;DHT22;16786;49.466;11.068;2022-08-20T01:38:44;17.80;99.90
29917;DHT22;16786;49.466;11.068;2022-08-20T01:43:55;17.70;99.90
29917;DHT22;16786;49.466;11.068;2022-08-20T01:46:38;17.80;99.90
29917;DHT22;16786;49.466;11.068;2022-08-20T01:49:26;17.80;99.90
29917;DHT22;16786;49.466;11.068;2022-08-20T01:51:59;17.70;99.90
29917;DHT22;16786;49.466;11.068;2022-08-20T01:54:27;17.80;99.90
29917;DHT22;16786;49.466;11.068;2022-08-20T01:56:57;17.80;99.90
29917;DHT22;16786;49.466;11.068;2022-08-20T01:59:25;17.70;99.90
29917;DHT22;16786;49.466;11.068;2022-08-20T02:01:53;17.80;99.90
29917;DHT22;16786;49.466;11.068;2022-08-20T02:04:22;17.70;99.90
29917;DHT22;16786;49.466;11.068;2022-08-20T02:06:53;17.70;99.90
29917;DHT22;16786;49.466;11.068;2022-08-20T02:09:27;17.80;99.90
29917;DHT22;16786;49.466;11.068;2022-08-20T02:11:56;17.80;99.90
29917;DHT22;16786;49.466;11.068;2022-08-20T02:14:25;17.80;99.90
29917;DHT22;16786;49.466;11.068;2022-08-20T02:16:53;17.80;99.90
29917;DHT22;16786;49.466;11.068;2022-08-20T02:19:40;17.80;99.90
29917;DHT22;16786;49.466;11.068;2022-08-20T02:22:33;17.80;99.90
29917;DHT22;16786;49.466;11.068;2022-08-20T02:25:05;17.80;99.90
29917;DHT22;16786;49.466;11.068;2022-08-20T02:27:34;17.80;99.90
29917;DHT22;16786;49.466;11.068;2022-08-20T02:30:05;17.80;99.90
29917;DHT22;16786;49.466;11.068;2022-08-20T02:32:46;17.70;99.90
29917;DHT22;16786;49.466;11.068;2022-08-20T02:35:14;17.70;99.90
29917;DHT22;16786;49.466;11.068;2022-08-20T02:37:43;17.70;99.90
29917;DHT22;16786;49.466;11.068;2022-08-20T02:40:16;17.60;99.90
29917;DHT22;16786;49.466;11.068;2022-08-20T02:42:58;17.60;99.90
29917;DHT22;16786;49.466;11.068;2022-08-20T02:45:25;17.70;99.90
29917;DHT22;16786;49.466;11.068;2022-08-20T02:47:54;17.70;99.90
29917;DHT22;16786;49.466;11.068;2022-08-20T02:50:24;17.70;99.90
29917;DHT22;16786;49.466;11.068;2022-08-20T02:52:52;17.60;99.90
29917;DHT22;16786;49.466;11.068;2022-08-20T02:55:21;17.70;99.90
29917;DHT22;16786;49.466;11.068;2022-08-20T02:57:58;17.60;99.90
29917;DHT22;16786;49.466;11.068;2022-08-20T03:00:29;17.60;99.90
29917;DHT22;16786;49.466;11.068;2022-08-20T03:03:08;17.60;99.90
29917;DHT22;16786;49.466;11.068;2022-08-20T03:05:38;17.60;99.90
29917;DHT22;16786;49.466;11.068;2022-08-20T03:08:07;17.60;99.90
29917;DHT22;16786;49.466;11.068;2022-08-20T03:10:38;17.60;99.90
29917;DHT22;16786;49.466;11.068;2022-08-20T03:13:07;17.60;99.90
29917;DHT22;16786;49.466;11.068;2022-08-20T03:15:41;17.60;99.90
29917;DHT22;16786;49.466;11.068;2022-08-20T03:18:10;17.60;99.90
29917;DHT22;16786;49.466;11.068;2022-08-20T03:20:37;17.60;99.90
29917;DHT22;16786;49.466;11.068;2022-08-20T03:23:05;17.60;99.90
29917;DHT22;16786;49.466;11.068;2022-08-20T03:25:33;17.60;99.90
29917;DHT22;16786;49.466;11.068;2022-08-20T03:28:00;17.60;99.90
29917;DHT22;16786;49.466;11.068;2022-08-20T03:30:28;17.60;99.90
29917;DHT22;16786;49.466;11.068;2022-08-20T03:32:56;17.60;99.90
29917;DHT22;16786;49.466;11.068;2022-08-20T03:35:25;17.60;99.90
29917;DHT22;16786;49.466;11.068;2022-08-20T03:37:53;17.70;99.90
29917;DHT22;16786;49.466;11.068;2022-08-20T03:40:28;17.60;99.90
29917;DHT22;16786;49.466;11.068;2022-08-20T03:42:57;17.60;99.90
29917;DHT22;16786;49.466;11.068;2022-08-20T03:45:26;17.60;99.90
29917;DHT22;16786;49.466;11.068;2022-08-20T03:47:54;17.60;99.90
29917;DHT22;16786;49.466;11.068;2022-08-20T03:50:25;17.60;99.90
29917;DHT22;16786;49.466;11.068;2022-08-20T03:52:54;17.60;99.90
29917;DHT22;16786;49.466;11.068;2022-08-20T03:55:23;17.60;99.90
29917;DHT22;16786;49.466;11.068;2022-08-20T03:57:53;17.60;99.90
29917;DHT22;16786;49.466;11.068;2022-08-20T04:00:26;17.60;99.90
29917;DHT22;16786;49.466;11.068;2022-08-20T04:02:53;17.60;99.90
29917;DHT22;16786;49.466;11.068;2022-08-20T04:05:24;17.60;99.90
29917;DHT22;16786;49.466;11.068;2022-08-20T04:07:55;17.60;99.90
29917;DHT22;16786;49.466;11.068;2022-08-20T04:10:30;17.60;99.90
29917;DHT22;16786;49.466;11.068;2022-08-20T04:12:58;17.60;99.90
29917;DHT22;16786;49.466;11.068;2022-08-20T04:15:27;17.60;99.90
29917;DHT22;16786;49.466;11.068;2022-08-20T04:17:55;17.60;99.90
29917;DHT22;16786;49.466;11.068;2022-08-20T04:20:23;17.60;99.90
29917;DHT22;16786;49.466;11.068;2022-08-20T04:22:53;17.70;99.90
29917;DHT22;16786;49.466;11.068;2022-08-20T04:25:26;17.60;99.90
29917;DHT22;16786;49.466;11.068;2022-08-20T04:27:57;17.60;99.90
29917;DHT22;16786;49.466;11.068;2022-08-20T04:30:25;17.60;99.90
29917;DHT22;16786;49.466;11.068;2022-08-20T04:32:54;17.60;99.90
29917;DHT22;16786;49.466;11.068;2022-08-20T04:35:22;17.60;99.90
29917;DHT22;16786;49.466;11.068;2022-08-20T04:38:05;17.60;99.90
29917;DHT22;16786;49.466;11.068;2022-08-20T04:40:34;17.60;99.90
29917;DHT22;16786;49.466;11.068;2022-08-20T04:45:53;17.70;99.90
29917;DHT22;16786;49.466;11.068;2022-08-20T04:48:21;17.80;99.90
29917;DHT22;16786;49.466;11.068;2022-08-20T04:50:50;17.80;99.90
29917;DHT22;16786;49.466;11.068;2022-08-20T04:53:24;17.80;99.90
29917;DHT22;16786;49.466;11.068;2022-08-20T04:55:53;17.80;99.90
29917;DHT22;16786;49.466;11.068;2022-08-20T04:58:24;17.80;99.90
29917;DHT22;16786;49.466;11.068;2022-08-20T05:00:54;17.80;99.90
29917;DHT22;16786;49.466;11.068;2022-08-20T05:03:27;17.90;99.90
29917;DHT22;16786;49.466;11.068;2022-08-20T05:05:54;17.90;99.90
29917;DHT22;16786;49.466;11.068;2022-08-20T05:08:23;17.90;99.90
29917;DHT22;16786;49.466;11.068;2022-08-20T05:10:52;17.90;99.90
29917;DHT22;16786;49.466;11.068;2022-08-20T05:13:40;17.80;99.90
29917;DHT22;16786;49.466;11.068;2022-08-20T05:16:08;17.90;99.90
29917;DHT22;16786;49.466;11.068;2022-08-20T05:18:36;17.90;99.90
29917;DHT22;16786;49.466;11.068;2022-08-20T05:21:03;17.90;99.90
29917;DHT22;16786;49.466;11.068;2022-08-20T05:23:37;17.90;99.90
29917;DHT22;16786;49.466;11.068;2022-08-20T05:26:10;17.90;99.90
29917;DHT22;16786;49.466;11.068;2022-08-20T05:28:38;18.00;99.90
29917;DHT22;16786;49.466;11.068;2022-08-20T05:31:28;18.00;99.90
29917;DHT22;16786;49.466;11.068;2022-08-20T05:34:04;18.00;99.90
29917;DHT22;16786;49.466;11.068;2022-08-20T05:36:40;18.00;99.90
29917;DHT22;16786;49.466;11.068;2022-08-20T05:39:08;18.00;99.90
29917;DHT22;16786;49.466;11.068;2022-08-20T05:41:37;18.00;99.90
29917;DHT22;16786;49.466;11.068;2022-08-20T05:44:06;18.10;99.90
29917;DHT22;16786;49.466;11.068;2022-08-20T05:46:37;18.10;99.90
29917;DHT22;16786;49.466;11.068;2022-08-20T05:49:08;18.20;99.90
29917;DHT22;16786;49.466;11.068;2022-08-20T05:51:36;18.20;99.90
29917;DHT22;16786;49.466;11.068;2022-08-20T05:54:04;18.20;99.90
29917;DHT22;16786;49.466;11.068;2022-08-20T05:56:32;18.20;99.90
29917;DHT22;16786;49.466;11.068;2022-08-20T05:59:00;18.30;99.90
29917;DHT22;16786;49.466;11.068;2022-08-20T06:01:33;18.30;99.90
29917;DHT22;16786;49.466;11.068;2022-08-20T06:04:01;18.40;99.90
29917;DHT22;16786;49.466;11.068;2022-08-20T06:06:47;18.40;99.90
29917;DHT22;16786;49.466;11.068;2022-08-20T06:09:16;18.50;99.90
29917;DHT22;16786;49.466;11.068;2022-08-20T06:12:03;18.50;99.90
29917;DHT22;16786;49.466;11.068;2022-08-20T06:14:32;18.60;99.90
29917;DHT22;16786;49.466;11.068;2022-08-20T06:17:04;18.50;99.90
29917;DHT22;16786;49.466;11.068;2022-08-20T06:19:33;18.50;99.90
29917;DHT22;16786;49.466;11.068;2022-08-20T06:22:02;18.50;99.90
29917;DHT22;16786;49.466;11.068;2022-08-20T06:24:47;18.60;99.90
29917;DHT22;16786;49.466;11.068;2022-08-20T06:27:17;18.70;99.90
29917;DHT22;16786;49.466;11.068;2022-08-20T06:29:45;18.80;99.90
29917;DHT22;16786;49.466;11.068;2022-08-20T06:32:13;18.90;99.90
29917;DHT22;16786;49.466;11.068;2022-08-20T06:34:41;19.10;99.90
29917;DHT22;16786;49.466;11.068;2022-08-20T06:37:20;19.10;99.90
29917;DHT22;16786;49.466;11.068;2022-08-20T06:39:48;19.10;99.90
29917;DHT22;16786;49.466;11.068;2022-08-20T06:42:16;19.10;99.90
29917;DHT22;16786;49.466;11.068;2022-08-20T06:44:48;19.00;99.90
29917;DHT22;16786;49.466;11.068;2022-08-20T06:47:19;19.10;99.90
29917;DHT22;16786;49.466;11.068;2022-08-20T06:49:47;19.10;99.90
29917;DHT22;16786;49.466;11.068;2022-08-20T06:52:15;19.20;99.90
29917;DHT22;16786;49.466;11.068;2022-08-20T06:54:44;19.20;99.90
29917;DHT22;16786;49.466;11.068;2022-08-20T06:57:12;19.40;99.90
29917;DHT22;16786;49.466;11.068;2022-08-20T06:59:40;19.50;99.90
29917;DHT22;16786;49.466;11.068;2022-08-20T07:02:07;19.40;99.90
29917;DHT22;16786;49.466;11.068;2022-08-20T07:04:35;19.30;99.90
29917;DHT22;16786;49.466;11.068;2022-08-20T07:07:03;19.40;99.90
29917;DHT22;16786;49.466;11.068;2022-08-20T07:09:31;19.40;99.90
29917;DHT22;16786;49.466;11.068;2022-08-20T07:11:58;19.40;99.90
29917;DHT22;16786;49.466;11.068;2022-08-20T07:14:25;19.50;99.90
29917;DHT22;16786;49.466;11.068;2022-08-20T07:16:53;19.70;99.90
29917;DHT22;16786;49.466;11.068;2022-08-20T07:19:20;19.70;99.90
29917;DHT22;16786;49.466;11.068;2022-08-20T07:21:47;19.80;99.90
29917;DHT22;16786;49.466;11.068;2022-08-20T07:24:15;20.00;99.90
29917;DHT22;16786;49.466;11.068;2022-08-20T07:26:42;20.30;99.90
29917;DHT22;16786;49.466;11.068;2022-08-20T07:29:10;20.60;99.90
29917;DHT22;16786;49.466;11.068;2022-08-20T07:31:38;20.80;99.90
29917;DHT22;16786;49.466;11.068;2022-08-20T07:34:25;20.90;99.90
29917;DHT22;16786;49.466;11.068;2022-08-20T07:36:53;20.80;99.90
29917;DHT22;16786;49.466;11.068;2022-08-20T07:39:25;20.80;99.90
29917;DHT22;16786;49.466;11.068;2022-08-20T07:41:55;20.70;99.90
29917;DHT22;16786;49.466;11.068;2022-08-20T07:44:29;21.00;99.90
29917;DHT22;16786;49.466;11.068;2022-08-20T07:46:58;21.00;99.90
29917;DHT22;16786;49.466;11.068;2022-08-20T07:49:25;21.20;99.90
29917;DHT22;16786;49.466;11.068;2022-08-20T07:51:53;21.20;99.90
29917;DHT22;16786;49.466;11.068;2022-08-20T07:54:20;20.90;99.90
29917;DHT22;16786;49.466;11.068;2022-08-20T07:56:48;20.90;99.90
29917;DHT22;16786;49.466;11.068;2022-08-20T07:59:15;21.00;99.90
29917;DHT22;16786;49.466;11.068;2022-08-20T08:01:42;20.90;99.90
29917;DHT22;16786;49.466;11.068;2022-08-20T08:04:10;20.80;99.90
29917;DHT22;16786;49.466;11.068;2022-08-20T08:06:37;20.80;99.90
29917;DHT22;16786;49.466;11.068;2022-08-20T08:09:13;20.60;99.90
29917;DHT22;16786;49.466;11.068;2022-08-20T08:11:42;20.60;99.90
29917;DHT22;16786;49.466;11.068;2022-08-20T08:14:16;20.70;99.90
29917;DHT22;16786;49.466;11.068;2022-08-20T08:16:45;20.70;99.90
29917;DHT22;16786;49.466;11.068;2022-08-20T08:19:14;20.60;99.90
29917;DHT22;16786;49.466;11.068;2022-08-20T08:21:43;20.50;99.90
29917;DHT22;16786;49.466;11.068;2022-08-20T08:24:12;20.60;99.90
29917;DHT22;16786;49.466;11.068;2022-08-20T08:26:46;20.70;99.90
29917;DHT22;16786;49.466;11.068;2022-08-20T08:29:16;20.70;99.90
29917;DHT22;16786;49.466;11.068;2022-08-20T08:31:43;20.50;99.90
29917;DHT22;16786;49.466;11.068;2022-08-20T08:34:11;20.60;99.90
29917;DHT22;16786;49.466;11.068;2022-08-20T08:36:39;20.50;99.90
29917;DHT22;16786;49.466;11.068;2022-08-20T08:39:06;20.50;99.90
29917;DHT22;16786;49.466;11.068;2022-08-20T08:41:41;20.60;99.90
29917;DHT22;16786;49.466;11.068;2022-08-20T08:46:50;20.60;99.90
29917;DHT22;16786;49.466;11.068;2022-08-20T08:49:24;20.70;99.90
29917;DHT22;16786;49.466;11.068;2022-08-20T08:52:08;20.90;99.90
29917;DHT22;16786;49.466;11.068;2022-08-20T08:54:41;21.00;99.90
29917;DHT22;16786;49.466;11.068;2022-08-20T08:57:10;20.90;99.90
29917;DHT22;16786;49.466;11.068;2022-08-20T08:59:37;21.20;99.90
29917;DHT22;16786;49.466;11.068;2022-08-20T09:02:26;21.40;99.90
29917;DHT22;16786;49.466;11.068;2022-08-20T09:04:55;21.40;99.90
29917;DHT22;16786;49.466;11.068;2022-08-20T09:07:30;21.70;99.90
29917;DHT22;16786;49.466;11.068;2022-08-20T09:09:59;21.90;99.90
29917;DHT22;16786;49.466;11.068;2022-08-20T09:12:27;22.00;99.90
29917;DHT22;16786;49.466;11.068;2022-08-20T09:14:54;22.20;99.90
29917;DHT22;16786;49.466;11.068;2022-08-20T09:17:22;22.30;99.90
29917;DHT22;16786;49.466;11.068;2022-08-20T09:19:50;22.30;99.90
29917;DHT22;16786;49.466;11.068;2022-08-20T09:22:21;22.30;99.90
29917;DHT22;16786;49.466;11.068;2022-08-20T09:24:48;22.40;99.90
29917;DHT22;16786;49.466;11.068;2022-08-20T09:27:17;22.60;99.90
29917;DHT22;16786;49.466;11.068;2022-08-20T09:29:45;22.60;99.90
29917;DHT22;16786;49.466;11.068;2022-08-20T09:32:19;22.70;99.90
29917;DHT22;16786;49.466;11.068;2022-08-20T09:34:50;22.70;99.90
29917;DHT22;16786;49.466;11.068;2022-08-20T09:37:24;22.70;99.90
29917;DHT22;16786;49.466;11.068;2022-08-20T09:39:52;22.70;99.90
29917;DHT22;16786;49.466;11.068;2022-08-20T09:42:27;23.00;99.90
29917;DHT22;16786;49.466;11.068;2022-08-20T09:44:57;23.20;99.90
29917;DHT22;16786;49.466;11.068;2022-08-20T09:47:26;23.30;99.90
29917;DHT22;16786;49.466;11.068;2022-08-20T09:49:53;23.60;99.90
29917;DHT22;16786;49.466;11.068;2022-08-20T09:52:27;23.50;99.90
29917;DHT22;16786;49.466;11.068;2022-08-20T09:55:00;23.20;99.90
29917;DHT22;16786;49.466;11.068;2022-08-20T09:57:29;23.40;99.90
29917;DHT22;16786;49.466;11.068;2022-08-20T10:00:00;23.40;99.90
29917;DHT22;16786;49.466;11.068;2022-08-20T10:02:38;23.40;99.90
29917;DHT22;16786;49.466;11.068;2022-08-20T10:05:05;23.60;99.90
29917;DHT22;16786;49.466;11.068;2022-08-20T10:07:37;23.40;99.90
29917;DHT22;16786;49.466;11.068;2022-08-20T10:10:08;23.20;99.90
29917;DHT22;16786;49.466;11.068;2022-08-20T10:12:35;22.70;99.90
29917;DHT22;16786;49.466;11.068;2022-08-20T10:15:03;22.80;99.90
29917;DHT22;16786;49.466;11.068;2022-08-20T10:17:30;23.00;99.90
29917;DHT22;16786;49.466;11.068;2022-08-20T10:19:58;22.70;99.90
29917;DHT22;16786;49.466;11.068;2022-08-20T10:22:25;22.60;99.90
29917;DHT22;16786;49.466;11.068;2022-08-20T10:24:53;23.00;99.90
29917;DHT22;16786;49.466;11.068;2022-08-20T10:27:20;23.00;99.90
29917;DHT22;16786;49.466;11.068;2022-08-20T10:29:47;23.20;99.90
29917;DHT22;16786;49.466;11.068;2022-08-20T10:32:15;23.30;99.90
29917;DHT22;16786;49.466;11.068;2022-08-20T10:34:44;23.40;99.90
29917;DHT22;16786;49.466;11.068;2022-08-20T10:37:20;23.40;99.90
29917;DHT22;16786;49.466;11.068;2022-08-20T10:39:48;23.70;99.90
29917;DHT22;16786;49.466;11.068;2022-08-20T10:42:15;23.90;99.90
29917;DHT22;16786;49.466;11.068;2022-08-20T10:44:43;24.00;99.90
29917;DHT22;16786;49.466;11.068;2022-08-20T10:47:24;24.10;99.90
29917;DHT22;16786;49.466;11.068;2022-08-20T10:49:53;23.90;99.90
29917;DHT22;16786;49.466;11.068;2022-08-20T10:52:22;23.90;99.90
29917;DHT22;16786;49.466;11.068;2022-08-20T10:54:50;24.00;99.90
29917;DHT22;16786;49.466;11.068;2022-08-20T10:57:21;24.20;99.90
29917;DHT22;16786;49.466;11.068;2022-08-20T10:59:50;24.50;99.90
29917;DHT22;16786;49.466;11.068;2022-08-20T11:02:18;24.60;99.90
29917;DHT22;16786;49.466;11.068;2022-08-20T11:04:47;24.90;99.90
29917;DHT22;16786;49.466;11.068;2022-08-20T11:07:20;25.20;99.90
29917;DHT22;16786;49.466;11.068;2022-08-20T11:10:10;25.20;99.90
29917;DHT22;16786;49.466;11.068;2022-08-20T11:12:40;25.30;99.90
29917;DHT22;16786;49.466;11.068;2022-08-20T11:15:10;25.40;99.90
29917;DHT22;16786;49.466;11.068;2022-08-20T11:17:40;25.50;99.90
29917;DHT22;16786;49.466;11.068;2022-08-20T11:20:13;25.90;99.90
29917;DHT22;16786;49.466;11.068;2022-08-20T11:22:40;26.10;99.90
29917;DHT22;16786;49.466;11.068;2022-08-20T11:25:08;26.10;99.90
29917;DHT22;16786;49.466;11.068;2022-08-20T11:27:39;25.90;99.90
29917;DHT22;16786;49.466;11.068;2022-08-20T11:30:09;26.20;99.90
29917;DHT22;16786;49.466;11.068;2022-08-20T11:32:37;26.50;99.90
29917;DHT22;16786;49.466;11.068;2022-08-20T11:35:05;26.50;99.90
29917;DHT22;16786;49.466;11.068;2022-08-20T11:37:54;26.70;99.90
29917;DHT22;16786;49.466;11.068;2022-08-20T11:40:23;26.80;99.90
29917;DHT22;16786;49.466;11.068;2022-08-20T11:42:51;27.10;99.90
29917;DHT22;16786;49.466;11.068;2022-08-20T11:45:39;27.00;99.90
29917;DHT22;16786;49.466;11.068;2022-08-20T11:48:06;26.90;99.90
29917;DHT22;16786;49.466;11.068;2022-08-20T11:50:33;27.10;99.90
29917;DHT22;16786;49.466;11.068;2022-08-20T11:53:01;27.30;99.90
29917;DHT22;16786;49.466;11.068;2022-08-20T11:55:28;27.40;99.90
29917;DHT22;16786;49.466;11.068;2022-08-20T11:57:57;27.90;99.90
29917;DHT22;16786;49.466;11.068;2022-08-20T12:00:28;28.20;99.90
29917;DHT22;16786;49.466;11.068;2022-08-20T12:03:00;28.10;99.90
29917;DHT22;16786;49.466;11.068;2022-08-20T12:05:28;27.20;99.90
29917;DHT22;16786;49.466;11.068;2022-08-20T12:07:56;26.40;99.90
29917;DHT22;16786;49.466;11.068;2022-08-20T12:10:26;26.20;99.90
29917;DHT22;16786;49.466;11.068;2022-08-20T12:12:54;26.00;99.90
29917;DHT22;16786;49.466;11.068;2022-08-20T12:15:23;25.50;99.90
29917;DHT22;16786;49.466;11.068;2022-08-20T12:17:51;25.50;99.90
29917;DHT22;16786;49.466;11.068;2022-08-20T12:20:19;25.60;99.90
29917;DHT22;16786;49.466;11.068;2022-08-20T12:22:46;25.40;99.90
29917;DHT22;16786;49.466;11.068;2022-08-20T12:25:14;25.30;99.90
29917;DHT22;16786;49.466;11.068;2022-08-20T12:27:41;25.10;99.90
29917;DHT22;16786;49.466;11.068;2022-08-20T12:30:12;24.80;99.90
29917;DHT22;16786;49.466;11.068;2022-08-20T12:32:40;24.40;99.90
29917;DHT22;16786;49.466;11.068;2022-08-20T12:35:09;24.30;99.90
29917;DHT22;16786;49.466;11.068;2022-08-20T12:37:37;24.30;99.90
29917;DHT22;16786;49.466;11.068;2022-08-20T12:40:07;24.20;99.90
29917;DHT22;16786;49.466;11.068;2022-08-20T12:42:36;24.20;99.90
29917;DHT22;16786;49.466;11.068;2022-08-20T12:45:04;24.20;99.90
29917;DHT22;16786;49.466;11.068;2022-08-20T12:47:34;24.10;99.90
29917;DHT22;16786;49.466;11.068;2022-08-20T12:50:06;24.00;99.90
29917;DHT22;16786;49.466;11.068;2022-08-20T12:52:34;23.90;99.90
29917;DHT22;16786;49.466;11.068;2022-08-20T12:55:03;23.80;99.90
29917;DHT22;16786;49.466;11.068;2022-08-20T13:00:10;23.60;99.90
29917;DHT22;16786;49.466;11.068;2022-08-20T13:02:39;23.40;99.90
29917;DHT22;16786;49.466;11.068;2022-08-20T13:05:08;23.30;99.90
29917;DHT22;16786;49.466;11.068;2022-08-20T13:07:37;23.30;99.90
29917;DHT22;16786;49.466;11.068;2022-08-20T13:10:06;23.20;99.90
29917;DHT22;16786;49.466;11.068;2022-08-20T13:12:34;22.90;99.90
29917;DHT22;16786;49.466;11.068;2022-08-20T13:15:03;22.70;99.90
29917;DHT22;16786;49.466;11.068;2022-08-20T13:17:30;22.70;99.90
29917;DHT22;16786;49.466;11.068;2022-08-20T13:20:08;22.50;99.90
29917;DHT22;16786;49.466;11.068;2022-08-20T13:22:36;22.50;99.90
29917;DHT22;16786;49.466;11.068;2022-08-20T13:25:04;22.50;99.90
29917;DHT22;16786;49.466;11.068;2022-08-20T13:27:32;22.50;99.90
29917;DHT22;16786;49.466;11.068;2022-08-20T13:30:00;22.50;99.90
29917;DHT22;16786;49.466;11.068;2022-08-20T13:32:27;22.90;99.90
29917;DHT22;16786;49.466;11.068;2022-08-20T13:34:54;23.30;99.90
29917;DHT22;16786;49.466;11.068;2022-08-20T13:37:24;23.60;99.90
29917;DHT22;16786;49.466;11.068;2022-08-20T13:39:53;24.10;99.90
29917;DHT22;16786;49.466;11.068;2022-08-20T13:42:21;24.30;99.90
29917;DHT22;16786;49.466;11.068;2022-08-20T13:44:49;24.40;99.90
29917;DHT22;16786;49.466;11.068;2022-08-20T13:47:26;24.90;99.90
29917;DHT22;16786;49.466;11.068;2022-08-20T13:50:14;25.30;99.90
29917;DHT22;16786;49.466;11.068;2022-08-20T13:52:42;26.10;99.90
29917;DHT22;16786;49.466;11.068;2022-08-20T13:55:13;26.40;99.90
29917;DHT22;16786;49.466;11.068;2022-08-20T13:57:41;26.50;99.90
29917;DHT22;16786;49.466;11.068;2022-08-20T14:00:15;26.60;99.90
29917;DHT22;16786;49.466;11.068;2022-08-20T14:02:43;26.00;99.90
29917;DHT22;16786;49.466;11.068;2022-08-20T14:05:11;25.60;99.90
29917;DHT22;16786;49.466;11.068;2022-08-20T14:07:45;25.30;99.90
29917;DHT22;16786;49.466;11.068;2022-08-20T14:10:17;25.20;99.90
29917;DHT22;16786;49.466;11.068;2022-08-20T14:12:45;25.10;99.90
29917;DHT22;16786;49.466;11.068;2022-08-20T14:15:14;24.90;99.90
29917;DHT22;16786;49.466;11.068;2022-08-20T14:17:52;25.10;99.90
29917;DHT22;16786;49.466;11.068;2022-08-20T14:20:21;25.20;99.90
29917;DHT22;16786;49.466;11.068;2022-08-20T14:22:50;25.00;99.90
29917;DHT22;16786;49.466;11.068;2022-08-20T14:25:18;25.10;99.90
29917;DHT22;16786;49.466;11.068;2022-08-20T14:27:46;25.10;99.90
29917;DHT22;16786;49.466;11.068;2022-08-20T14:30:16;25.00;99.90
29917;DHT22;16786;49.466;11.068;2022-08-20T14:32:44;24.90;99.90
29917;DHT22;16786;49.466;11.068;2022-08-20T14:35:12;24.90;99.90
29917;DHT22;16786;49.466;11.068;2022-08-20T14:37:42;24.50;99.90
29917;DHT22;16786;49.466;11.068;2022-08-20T14:40:12;24.30;99.90
29917;DHT22;16786;49.466;11.068;2022-08-20T14:42:40;24.10;99.90
29917;DHT22;16786;49.466;11.068;2022-08-20T14:45:12;24.10;99.90
29917;DHT22;16786;49.466;11.068;2022-08-20T14:47:55;23.90;99.90
29917;DHT22;16786;49.466;11.068;2022-08-20T14:50:29;23.80;99.90
29917;DHT22;16786;49.466;11.068;2022-08-20T14:52:57;23.80;99.90
29917;DHT22;16786;49.466;11.068;2022-08-20T14:55:30;23.70;99.90
29917;DHT22;16786;49.466;11.068;2022-08-20T14:57:57;23.80;99.90
29917;DHT22;16786;49.466;11.068;2022-08-20T15:00:28;24.10;99.90
29917;DHT22;16786;49.466;11.068;2022-08-20T15:02:56;24.70;99.90
29917;DHT22;16786;49.466;11.068;2022-08-20T15:05:24;25.60;99.90
29917;DHT22;16786;49.466;11.068;2022-08-20T15:07:53;26.20;99.90
29917;DHT22;16786;49.466;11.068;2022-08-20T15:10:25;26.20;99.90
29917;DHT22;16786;49.466;11.068;2022-08-20T15:12:53;26.30;99.90
29917;DHT22;16786;49.466;11.068;2022-08-20T15:15:21;26.20;99.90
29917;DHT22;16786;49.466;11.068;2022-08-20T15:17:52;26.50;99.90
29917;DHT22;16786;49.466;11.068;2022-08-20T15:20:21;26.70;99.90
29917;DHT22;16786;49.466;11.068;2022-08-20T15:22:50;26.80;99.90
29917;DHT22;16786;49.466;11.068;2022-08-20T15:25:19;26.60;99.90
29917;DHT22;16786;49.466;11.068;2022-08-20T15:27:48;26.10;99.90
29917;DHT22;16786;49.466;11.068;2022-08-20T15:30:19;25.60;99.90
29917;DHT22;16786;49.466;11.068;2022-08-20T15:32:46;25.20;99.90
29917;DHT22;16786;49.466;11.068;2022-08-20T15:35:22;25.10;99.90
29917;DHT22;16786;49.466;11.068;2022-08-20T15:37:50;24.70;99.90
29917;DHT22;16786;49.466;11.068;2022-08-20T15:40:22;24.50;99.90
29917;DHT22;16786;49.466;11.068;2022-08-20T15:42:57;24.00;99.90
29917;DHT22;16786;49.466;11.068;2022-08-20T15:45:26;24.00;99.90
29917;DHT22;16786;49.466;11.068;2022-08-20T15:47:58;23.90;99.90
29917;DHT22;16786;49.466;11.068;2022-08-20T15:56:07;23.70;99.90
29917;DHT22;16786;49.466;11.068;2022-08-20T15:59:18;23.70;99.90